createdAt,value
2018-09-23T00:00:06.727Z,1014.97
2018-09-23T00:01:59.709Z,1014.97
2018-09-23T00:02:59.741Z,1014.99
2018-09-23T00:04:52.855Z,1014.99
2018-09-23T00:05:52.726Z,1015.00
2018-09-23T00:07:45.706Z,1015.05
2018-09-23T00:08:45.725Z,1015.06
2018-09-23T00:10:39.336Z,1015.05
2018-09-23T00:11:38.719Z,1015.11
2018-09-23T00:13:31.699Z,1015.08
2018-09-23T00:14:31.714Z,1015.14
2018-09-23T00:16:24.962Z,1015.17
2018-09-23T00:17:24.709Z,1015.16
2018-09-23T00:19:17.691Z,1015.23
2018-09-23T00:20:17.720Z,1015.26
2018-09-23T00:22:10.766Z,1015.27
2018-09-23T00:23:10.699Z,1015.33
2018-09-23T00:25:03.675Z,1015.30
2018-09-23T00:26:03.691Z,1015.31
2018-09-23T00:27:56.827Z,1015.33
2018-09-23T00:28:56.700Z,1015.35
2018-09-23T00:30:49.659Z,1015.38
2018-09-23T00:31:49.675Z,1015.43
2018-09-23T00:33:42.772Z,1015.39
2018-09-23T00:34:42.668Z,1015.43
2018-09-23T00:36:35.651Z,1015.44
2018-09-23T00:37:35.676Z,1015.45
2018-09-23T00:39:28.773Z,1015.48
2018-09-23T00:40:28.660Z,1015.48
2018-09-23T00:42:21.662Z,1015.46
2018-09-23T00:43:21.679Z,1015.46
2018-09-23T00:45:14.802Z,1015.50
2018-09-23T00:46:14.709Z,1015.49
2018-09-23T00:48:07.675Z,1015.45
2018-09-23T00:49:07.696Z,1015.42
2018-09-23T00:51:00.807Z,1015.42
2018-09-23T00:52:00.686Z,1015.42
2018-09-23T00:53:53.677Z,1015.47
2018-09-23T00:54:53.698Z,1015.45
2018-09-23T00:56:46.920Z,1015.53
2018-09-23T00:57:46.698Z,1015.53
2018-09-23T00:59:39.666Z,1015.55
2018-09-23T01:00:39.660Z,1015.56
2018-09-23T01:02:32.921Z,1015.59
2018-09-23T01:03:32.650Z,1015.57
2018-09-23T01:05:25.657Z,1015.57
2018-09-23T01:06:25.661Z,1015.57
2018-09-23T01:08:18.770Z,1015.56
2018-09-23T01:09:18.658Z,1015.61
2018-09-23T01:11:11.636Z,1015.61
2018-09-23T01:12:11.659Z,1015.64
2018-09-23T01:14:05.346Z,1015.69
2018-09-23T01:15:04.649Z,1015.74
2018-09-23T01:16:57.644Z,1015.72
2018-09-23T01:17:57.644Z,1015.74
2018-09-23T01:19:50.844Z,1015.84
2018-09-23T01:20:50.640Z,1015.83
2018-09-23T01:22:43.614Z,1015.82
2018-09-23T01:23:43.634Z,1015.84
2018-09-23T01:25:36.752Z,1015.84
2018-09-23T01:26:36.645Z,1015.87
2018-09-23T01:28:29.612Z,1015.91
2018-09-23T01:29:29.642Z,1015.89
2018-09-23T01:31:22.766Z,1015.92
2018-09-23T01:32:22.635Z,1015.90
2018-09-23T01:34:15.594Z,1015.88
2018-09-23T01:35:15.619Z,1015.85
2018-09-23T01:37:08.903Z,1015.86
2018-09-23T01:38:08.631Z,1015.89
2018-09-23T01:40:01.612Z,1015.97
2018-09-23T01:41:01.633Z,1015.98
2018-09-23T01:42:54.707Z,1015.97
2018-09-23T01:43:54.604Z,1015.97
2018-09-23T01:45:47.594Z,1015.98
2018-09-23T01:46:47.617Z,1015.99
2018-09-23T01:48:40.703Z,1015.95
2018-09-23T01:49:40.585Z,1016.02
2018-09-23T01:51:34.077Z,1015.99
2018-09-23T01:52:33.590Z,1016.00
2018-09-23T01:54:26.703Z,1016.03
2018-09-23T01:55:26.616Z,1016.03
2018-09-23T01:57:19.581Z,1015.98
2018-09-23T01:58:19.600Z,1016.02
2018-09-23T02:00:12.682Z,1016.03
2018-09-23T02:01:12.580Z,1016.03
2018-09-23T02:03:05.578Z,1016.04
2018-09-23T02:04:05.594Z,1016.04
2018-09-23T02:05:58.769Z,1016.03
2018-09-23T02:06:58.530Z,1016.03
2018-09-23T02:08:51.444Z,1016.01
2018-09-23T02:09:51.458Z,1016.05
2018-09-23T02:11:44.704Z,1016.00
2018-09-23T02:12:44.443Z,1016.01
2018-09-23T02:14:37.326Z,1016.00
2018-09-23T02:15:37.326Z,1016.00
2018-09-23T02:17:30.566Z,1016.04
2018-09-23T02:18:30.265Z,1015.98
2018-09-23T02:20:23.202Z,1016.01
2018-09-23T02:21:23.205Z,1016.00
2018-09-23T02:23:16.260Z,1016.03
2018-09-23T02:24:16.139Z,1016.03
2018-09-23T02:26:09.673Z,1016.05
2018-09-23T02:27:09.077Z,1016.03
2018-09-23T02:29:02.143Z,1016.05
2018-09-23T02:30:02.026Z,1016.05
2018-09-23T02:31:54.938Z,1016.04
2018-09-23T02:32:54.972Z,1016.01
2018-09-23T02:34:48.016Z,1016.00
2018-09-23T02:35:47.892Z,1015.97
2018-09-23T02:37:40.815Z,1015.88
2018-09-23T02:38:40.818Z,1015.89
2018-09-23T02:40:34.023Z,1015.83
2018-09-23T02:41:33.758Z,1015.82
2018-09-23T02:43:26.715Z,1015.85
2018-09-23T02:44:26.724Z,1015.86
2018-09-23T02:46:19.774Z,1015.80
2018-09-23T02:47:19.647Z,1015.79
2018-09-23T02:49:12.569Z,1015.78
2018-09-23T02:50:12.594Z,1015.74
2018-09-23T02:52:05.623Z,1015.74
2018-09-23T02:53:05.535Z,1015.69
2018-09-23T02:54:58.456Z,1015.67
2018-09-23T02:55:58.456Z,1015.65
2018-09-23T02:57:51.450Z,1015.62
2018-09-23T02:58:51.524Z,1015.62
2018-09-23T03:00:44.305Z,1015.65
2018-09-23T03:01:44.331Z,1015.63
2018-09-23T03:03:37.579Z,1015.61
2018-09-23T03:04:37.274Z,1015.64
2018-09-23T03:06:30.210Z,1015.61
2018-09-23T03:07:30.213Z,1015.63
2018-09-23T03:09:23.253Z,1015.61
2018-09-23T03:10:23.230Z,1015.57
2018-09-23T03:12:16.197Z,1015.55
2018-09-23T03:13:16.226Z,1015.55
2018-09-23T03:15:09.557Z,1015.52
2018-09-23T03:16:09.213Z,1015.49
2018-09-23T03:18:02.187Z,1015.53
2018-09-23T03:19:02.215Z,1015.53
2018-09-23T03:20:55.259Z,1015.47
2018-09-23T03:21:55.245Z,1015.46
2018-09-23T03:23:48.190Z,1015.43
2018-09-23T03:24:48.221Z,1015.40
2018-09-23T03:26:41.333Z,1015.44
2018-09-23T03:27:41.156Z,1015.37
2018-09-23T03:29:34.061Z,1015.43
2018-09-23T03:30:34.081Z,1015.42
2018-09-23T03:32:27.141Z,1015.40
2018-09-23T03:33:27.017Z,1015.38
2018-09-23T03:35:19.964Z,1015.38
2018-09-23T03:36:19.949Z,1015.35
2018-09-23T03:38:13.188Z,1015.37
2018-09-23T03:39:12.902Z,1015.34
2018-09-23T03:41:06.405Z,1015.34
2018-09-23T03:42:05.911Z,1015.31
2018-09-23T03:43:59.024Z,1015.30
2018-09-23T03:44:58.935Z,1015.31
2018-09-23T03:46:51.911Z,1015.31
2018-09-23T03:47:51.942Z,1015.30
2018-09-23T03:49:44.991Z,1015.29
2018-09-23T03:50:44.924Z,1015.25
2018-09-23T03:52:37.919Z,1015.22
2018-09-23T03:53:37.941Z,1015.22
2018-09-23T03:55:32.107Z,1015.18
2018-09-23T03:56:30.922Z,1015.19
2018-09-23T03:58:23.913Z,1015.16
2018-09-23T03:59:23.932Z,1015.19
2018-09-23T04:01:17.042Z,1015.18
2018-09-23T04:02:16.943Z,1015.16
2018-09-23T04:04:09.906Z,1015.16
2018-09-23T04:05:09.917Z,1015.15
2018-09-23T04:07:03.006Z,1015.16
2018-09-23T04:08:02.926Z,1015.19
2018-09-23T04:09:55.920Z,1015.12
2018-09-23T04:10:55.934Z,1015.08
2018-09-23T04:12:49.057Z,1015.07
2018-09-23T04:13:48.926Z,1015.02
2018-09-23T04:15:41.916Z,1015.08
2018-09-23T04:16:41.935Z,1015.07
2018-09-23T04:18:35.057Z,1015.02
2018-09-23T04:19:34.940Z,1015.00
2018-09-23T04:21:27.993Z,1015.00
2018-09-23T04:22:28.002Z,1014.97
2018-09-23T04:24:21.127Z,1014.87
2018-09-23T04:25:20.993Z,1014.84
2018-09-23T04:27:13.997Z,1014.75
2018-09-23T04:28:14.012Z,1014.77
2018-09-23T04:30:07.252Z,1014.74
2018-09-23T04:31:07.031Z,1014.70
2018-09-23T04:33:00.003Z,1014.65
2018-09-23T04:34:00.024Z,1014.68
2018-09-23T04:35:53.119Z,1014.65
2018-09-23T04:36:53.016Z,1014.62
2018-09-23T04:38:46.215Z,1014.61
2018-09-23T04:39:46.228Z,1014.66
2018-09-23T04:41:40.319Z,1014.60
2018-09-23T04:42:40.203Z,1014.56
2018-09-23T04:44:33.203Z,1014.49
2018-09-23T04:45:33.206Z,1014.48
2018-09-23T04:47:26.447Z,1014.48
2018-09-23T04:48:26.215Z,1014.43
2018-09-23T04:50:19.209Z,1014.44
2018-09-23T04:51:19.207Z,1014.41
2018-09-23T04:53:12.336Z,1014.40
2018-09-23T04:54:12.198Z,1014.38
2018-09-23T04:56:05.211Z,1014.38
2018-09-23T04:57:05.221Z,1014.36
2018-09-23T04:58:58.337Z,1014.31
2018-09-23T04:59:58.267Z,1014.33
2018-09-23T05:01:51.719Z,1014.23
2018-09-23T05:02:51.236Z,1014.16
2018-09-23T05:04:44.357Z,1014.13
2018-09-23T05:05:44.241Z,1014.11
2018-09-23T05:07:37.239Z,1014.08
2018-09-23T05:08:37.230Z,1014.06
2018-09-23T05:10:30.345Z,1014.01
2018-09-23T05:11:30.235Z,1013.97
2018-09-23T05:13:23.239Z,1013.90
2018-09-23T05:14:23.244Z,1013.90
2018-09-23T05:16:16.287Z,1013.83
2018-09-23T05:17:16.248Z,1013.82
2018-09-23T05:19:09.234Z,1013.82
2018-09-23T05:20:09.265Z,1013.82
2018-09-23T05:22:02.394Z,1013.87
2018-09-23T05:23:02.254Z,1013.82
2018-09-23T05:24:55.243Z,1013.84
2018-09-23T05:25:55.255Z,1013.81
2018-09-23T05:27:48.504Z,1013.77
2018-09-23T05:28:48.259Z,1013.76
2018-09-23T05:30:41.243Z,1013.75
2018-09-23T05:31:41.257Z,1013.70
2018-09-23T05:33:34.373Z,1013.69
2018-09-23T05:34:34.276Z,1013.67
2018-09-23T05:36:27.240Z,1013.65
2018-09-23T05:37:27.267Z,1013.61
2018-09-23T05:39:20.576Z,1013.54
2018-09-23T05:40:20.267Z,1013.55
2018-09-23T05:42:13.257Z,1013.53
2018-09-23T05:43:13.293Z,1013.54
2018-09-23T05:45:06.333Z,1013.49
2018-09-23T05:46:06.297Z,1013.46
2018-09-23T05:47:59.268Z,1013.41
2018-09-23T05:48:59.272Z,1013.43
2018-09-23T05:50:52.318Z,1013.35
2018-09-23T05:51:52.284Z,1013.31
2018-09-23T05:53:45.255Z,1013.32
2018-09-23T05:54:45.307Z,1013.33
2018-09-23T05:56:38.444Z,1013.29
2018-09-23T05:57:38.291Z,1013.29
2018-09-23T05:59:31.289Z,1013.32
2018-09-23T06:00:31.291Z,1013.31
2018-09-23T06:02:24.606Z,1013.29
2018-09-23T06:03:24.291Z,1013.26
2018-09-23T06:05:17.274Z,1013.19
2018-09-23T06:06:17.348Z,1013.21
2018-09-23T06:08:10.403Z,1013.20
2018-09-23T06:09:10.326Z,1013.19
2018-09-23T06:11:03.326Z,1013.19
2018-09-23T06:12:03.303Z,1013.11
2018-09-23T06:13:56.449Z,1013.06
2018-09-23T06:14:56.347Z,1013.04
2018-09-23T06:16:49.313Z,1012.99
2018-09-23T06:17:49.327Z,1013.03
2018-09-23T06:19:42.447Z,1012.98
2018-09-23T06:20:42.329Z,1012.97
2018-09-23T06:22:35.336Z,1012.93
2018-09-23T06:23:35.330Z,1012.91
2018-09-23T06:25:28.448Z,1012.86
2018-09-23T06:26:28.346Z,1012.88
2018-09-23T06:28:21.318Z,1012.88
2018-09-23T06:29:21.338Z,1012.87
2018-09-23T06:31:14.460Z,1012.89
2018-09-23T06:32:14.328Z,1012.88
2018-09-23T06:34:07.334Z,1012.87
2018-09-23T06:35:07.354Z,1012.87
2018-09-23T06:37:00.526Z,1012.82
2018-09-23T06:38:00.345Z,1012.80
2018-09-23T06:39:53.331Z,1012.82
2018-09-23T06:40:53.370Z,1012.80
2018-09-23T06:42:46.382Z,1012.79
2018-09-23T06:43:46.354Z,1012.73
2018-09-23T06:45:39.411Z,1012.72
2018-09-23T06:46:39.368Z,1012.72
2018-09-23T06:48:32.624Z,1012.69
2018-09-23T06:49:32.360Z,1012.72
2018-09-23T06:51:26.318Z,1012.67
2018-09-23T06:52:26.361Z,1012.66
2018-09-23T06:54:19.471Z,1012.61
2018-09-23T06:55:19.364Z,1012.62
2018-09-23T06:57:12.375Z,1012.62
2018-09-23T06:58:12.373Z,1012.60
2018-09-23T07:00:05.665Z,1012.60
2018-09-23T07:01:05.347Z,1012.59
2018-09-23T07:02:58.543Z,1012.52
2018-09-23T07:03:58.572Z,1012.46
2018-09-23T07:05:51.685Z,1012.44
2018-09-23T07:06:51.581Z,1012.36
2018-09-23T07:08:44.543Z,1012.31
2018-09-23T07:09:44.580Z,1012.29
2018-09-23T07:11:37.679Z,1012.26
2018-09-23T07:12:37.585Z,1012.27
2018-09-23T07:14:30.565Z,1012.23
2018-09-23T07:15:30.584Z,1012.19
2018-09-23T07:17:23.836Z,1012.19
2018-09-23T07:18:23.577Z,1012.22
2018-09-23T07:20:16.570Z,1012.20
2018-09-23T07:21:16.571Z,1012.18
2018-09-23T07:23:09.642Z,1012.17
2018-09-23T07:24:09.625Z,1012.11
2018-09-23T07:26:02.591Z,1012.07
2018-09-23T07:27:02.580Z,1012.05
2018-09-23T07:28:55.665Z,1012.03
2018-09-23T07:29:55.640Z,1012.06
2018-09-23T07:31:48.581Z,1012.06
2018-09-23T07:32:48.623Z,1012.07
2018-09-23T07:34:42.848Z,1012.05
2018-09-23T07:35:42.616Z,1012.01
2018-09-23T07:37:35.583Z,1011.96
2018-09-23T07:38:35.613Z,1011.93
2018-09-23T07:40:28.865Z,1011.88
2018-09-23T07:41:28.619Z,1011.88
2018-09-23T07:43:21.609Z,1011.87
2018-09-23T07:44:21.621Z,1011.84
2018-09-23T07:46:14.629Z,1011.80
2018-09-23T07:47:14.607Z,1011.78
2018-09-23T07:49:07.599Z,1011.77
2018-09-23T07:50:07.604Z,1011.71
2018-09-23T07:52:00.724Z,1011.70
2018-09-23T07:53:00.615Z,1011.72
2018-09-23T07:54:53.617Z,1011.69
2018-09-23T07:55:53.623Z,1011.65
2018-09-23T07:57:46.745Z,1011.64
2018-09-23T07:58:46.643Z,1011.65
2018-09-23T08:00:39.629Z,1011.64
2018-09-23T08:01:39.644Z,1011.63
2018-09-23T08:03:32.785Z,1011.61
2018-09-23T08:04:32.651Z,1011.60
2018-09-23T08:06:25.682Z,1011.53
2018-09-23T08:07:25.687Z,1011.53
2018-09-23T08:09:18.800Z,1011.51
2018-09-23T08:10:18.707Z,1011.49
2018-09-23T08:12:11.700Z,1011.46
2018-09-23T08:13:11.826Z,1011.46
2018-09-23T08:15:04.936Z,1011.43
2018-09-23T08:16:04.732Z,1011.40
2018-09-23T08:17:57.710Z,1011.35
2018-09-23T08:18:57.737Z,1011.36
2018-09-23T08:20:50.886Z,1011.33
2018-09-23T08:21:50.757Z,1011.32
2018-09-23T08:23:43.729Z,1011.29
2018-09-23T08:24:43.764Z,1011.29
2018-09-23T08:26:36.968Z,1011.20
2018-09-23T08:27:36.745Z,1011.20
2018-09-23T08:29:29.727Z,1011.27
2018-09-23T08:30:29.768Z,1011.29
2018-09-23T08:32:23.104Z,1011.21
2018-09-23T08:33:22.766Z,1011.22
2018-09-23T08:35:15.772Z,1011.17
2018-09-23T08:36:15.768Z,1011.19
2018-09-23T08:38:09.040Z,1011.18
2018-09-23T08:39:08.795Z,1011.20
2018-09-23T08:41:01.775Z,1011.10
2018-09-23T08:42:01.794Z,1011.08
2018-09-23T08:43:54.934Z,1011.06
2018-09-23T08:44:54.805Z,1011.14
2018-09-23T08:46:47.805Z,1011.14
2018-09-23T08:47:47.862Z,1011.08
2018-09-23T08:49:41.088Z,1011.07
2018-09-23T08:50:40.851Z,1011.04
2018-09-23T08:52:33.850Z,1011.01
2018-09-23T08:53:33.841Z,1011.05
2018-09-23T08:55:27.392Z,1011.04
2018-09-23T08:56:27.061Z,1011.04
2018-09-23T08:58:20.049Z,1011.02
2018-09-23T08:59:20.088Z,1010.98
2018-09-23T09:01:13.167Z,1011.00
2018-09-23T09:02:13.096Z,1011.01
2018-09-23T09:04:06.076Z,1010.96
2018-09-23T09:05:06.092Z,1010.98
2018-09-23T09:06:59.292Z,1010.97
2018-09-23T09:07:59.113Z,1010.94
2018-09-23T09:09:52.095Z,1010.95
2018-09-23T09:10:52.104Z,1010.93
2018-09-23T09:12:45.212Z,1010.91
2018-09-23T09:13:45.126Z,1010.90
2018-09-23T09:15:38.113Z,1010.90
2018-09-23T09:16:38.128Z,1010.89
2018-09-23T09:18:31.263Z,1010.88
2018-09-23T09:19:31.157Z,1010.87
2018-09-23T09:21:24.142Z,1010.84
2018-09-23T09:22:24.164Z,1010.83
2018-09-23T09:24:17.271Z,1010.85
2018-09-23T09:25:17.182Z,1010.84
2018-09-23T09:27:10.223Z,1010.84
2018-09-23T09:28:10.194Z,1010.82
2018-09-23T09:30:03.343Z,1010.80
2018-09-23T09:31:03.203Z,1010.80
2018-09-23T09:32:56.171Z,1010.78
2018-09-23T09:33:56.205Z,1010.78
2018-09-23T09:35:49.315Z,1010.77
2018-09-23T09:36:49.201Z,1010.81
2018-09-23T09:38:42.186Z,1010.78
2018-09-23T09:39:42.197Z,1010.77
2018-09-23T09:41:35.323Z,1010.73
2018-09-23T09:42:35.215Z,1010.74
2018-09-23T09:44:28.223Z,1010.75
2018-09-23T09:45:28.211Z,1010.75
2018-09-23T09:47:21.839Z,1010.78
2018-09-23T09:48:21.229Z,1010.80
2018-09-23T09:50:14.215Z,1010.77
2018-09-23T09:51:14.246Z,1010.73
2018-09-23T09:53:07.347Z,1010.71
2018-09-23T09:54:07.244Z,1010.68
2018-09-23T09:56:00.240Z,1010.69
2018-09-23T09:57:00.241Z,1010.67
2018-09-23T09:58:53.347Z,1010.63
2018-09-23T09:59:53.231Z,1010.65
2018-09-23T10:01:46.242Z,1010.61
2018-09-23T10:02:46.249Z,1010.58
2018-09-23T10:04:39.518Z,1010.57
2018-09-23T10:05:39.249Z,1010.58
2018-09-23T10:07:32.234Z,1010.57
2018-09-23T10:08:32.270Z,1010.57
2018-09-23T10:10:25.356Z,1010.53
2018-09-23T10:11:25.295Z,1010.53
2018-09-23T10:13:18.257Z,1010.53
2018-09-23T10:14:18.256Z,1010.53
2018-09-23T10:16:11.382Z,1010.51
2018-09-23T10:17:11.280Z,1010.50
2018-09-23T10:19:04.251Z,1010.43
2018-09-23T10:20:04.276Z,1010.43
2018-09-23T10:21:57.376Z,1010.42
2018-09-23T10:22:57.313Z,1010.43
2018-09-23T10:24:50.263Z,1010.40
2018-09-23T10:25:50.280Z,1010.41
2018-09-23T10:27:43.395Z,1010.39
2018-09-23T10:28:43.281Z,1010.37
2018-09-23T10:30:36.274Z,1010.33
2018-09-23T10:31:36.358Z,1010.32
2018-09-23T10:33:29.425Z,1010.29
2018-09-23T10:34:29.308Z,1010.27
2018-09-23T10:36:22.302Z,1010.28
2018-09-23T10:37:22.289Z,1010.29
2018-09-23T10:39:15.393Z,1010.32
2018-09-23T10:40:15.301Z,1010.29
2018-09-23T10:42:08.285Z,1010.28
2018-09-23T10:43:08.305Z,1010.26
2018-09-23T10:45:01.341Z,1010.29
2018-09-23T10:46:01.304Z,1010.30
2018-09-23T10:47:54.313Z,1010.31
2018-09-23T10:48:54.297Z,1010.30
2018-09-23T10:50:47.549Z,1010.22
2018-09-23T10:51:47.301Z,1010.20
2018-09-23T10:53:40.311Z,1010.19
2018-09-23T10:54:40.333Z,1010.22
2018-09-23T10:56:44.482Z,1010.23
2018-09-23T10:57:33.326Z,1010.24
2018-09-23T10:59:26.393Z,1010.22
2018-09-23T11:00:26.377Z,1010.22
2018-09-23T11:02:19.652Z,1010.16
2018-09-23T11:03:19.391Z,1010.15
2018-09-23T11:05:12.588Z,1010.17
2018-09-23T11:06:12.626Z,1010.15
2018-09-23T11:08:05.742Z,1010.16
2018-09-23T11:09:05.623Z,1010.17
2018-09-23T11:10:58.603Z,1010.16
2018-09-23T11:11:58.637Z,1010.16
2018-09-23T11:13:51.748Z,1010.11
2018-09-23T11:14:51.619Z,1010.12
2018-09-23T11:16:44.619Z,1010.13
2018-09-23T11:17:44.632Z,1010.11
2018-09-23T11:19:37.736Z,1010.11
2018-09-23T11:20:37.624Z,1010.10
2018-09-23T11:22:30.608Z,1010.11
2018-09-23T11:23:30.704Z,1010.15
2018-09-23T11:25:23.794Z,1010.18
2018-09-23T11:26:23.658Z,1010.15
2018-09-23T11:28:16.631Z,1010.18
2018-09-23T11:29:16.662Z,1010.22
2018-09-23T11:31:09.943Z,1010.18
2018-09-23T11:32:09.665Z,1010.18
2018-09-23T11:34:02.648Z,1010.19
2018-09-23T11:35:02.671Z,1010.20
2018-09-23T11:36:55.750Z,1010.25
2018-09-23T11:37:55.654Z,1010.26
2018-09-23T11:39:48.665Z,1010.27
2018-09-23T11:40:48.655Z,1010.28
2018-09-23T11:42:41.741Z,1010.27
2018-09-23T11:43:41.665Z,1010.28
2018-09-23T11:45:34.648Z,1010.27
2018-09-23T11:46:34.680Z,1010.26
2018-09-23T11:48:27.801Z,1010.28
2018-09-23T11:49:27.683Z,1010.32
2018-09-23T11:51:20.661Z,1010.38
2018-09-23T11:52:20.680Z,1010.38
2018-09-23T11:54:13.918Z,1010.39
2018-09-23T11:55:13.655Z,1010.42
2018-09-23T11:57:06.651Z,1010.36
2018-09-23T11:58:06.669Z,1010.37
2018-09-23T11:59:59.802Z,1010.41
2018-09-23T12:00:59.680Z,1010.43
2018-09-23T12:02:52.669Z,1010.47
2018-09-23T12:03:52.684Z,1010.47
2018-09-23T12:05:46.453Z,1010.53
2018-09-23T12:06:45.686Z,1010.53
2018-09-23T12:08:38.654Z,1010.54
2018-09-23T12:09:38.676Z,1010.59
2018-09-23T12:11:31.804Z,1010.62
2018-09-23T12:12:31.664Z,1010.64
2018-09-23T12:14:24.653Z,1010.60
2018-09-23T12:15:24.676Z,1010.63
2018-09-23T12:17:17.935Z,1010.67
2018-09-23T12:18:17.673Z,1010.65
2018-09-23T12:20:10.672Z,1010.76
2018-09-23T12:21:10.666Z,1010.67
2018-09-23T12:23:03.714Z,1010.76
2018-09-23T12:24:03.694Z,1010.72
2018-09-23T12:25:56.745Z,1010.75
2018-09-23T12:26:56.684Z,1010.72
2018-09-23T12:28:49.922Z,1010.74
2018-09-23T12:29:49.694Z,1010.77
2018-09-23T12:31:42.670Z,1010.82
2018-09-23T12:32:42.691Z,1010.80
2018-09-23T12:34:35.816Z,1010.81
2018-09-23T12:35:35.696Z,1010.80
2018-09-23T12:37:28.690Z,1010.85
2018-09-23T12:38:28.708Z,1010.87
2018-09-23T12:40:21.792Z,1010.88
2018-09-23T12:41:21.693Z,1010.86
2018-09-23T12:43:14.671Z,1010.86
2018-09-23T12:44:14.678Z,1010.87
2018-09-23T12:46:07.778Z,1010.89
2018-09-23T12:47:07.696Z,1010.87
2018-09-23T12:49:00.703Z,1010.90
2018-09-23T12:50:00.779Z,1010.89
2018-09-23T12:51:53.736Z,1010.93
2018-09-23T12:52:53.705Z,1010.94
2018-09-23T12:54:46.711Z,1010.96
2018-09-23T12:55:46.717Z,1011.03
2018-09-23T12:57:39.751Z,1011.04
2018-09-23T12:58:39.715Z,1011.08
2018-09-23T13:00:32.711Z,1011.05
2018-09-23T13:01:32.714Z,1011.06
2018-09-23T13:03:25.956Z,1011.04
2018-09-23T13:04:25.733Z,1011.00
2018-09-23T13:06:18.708Z,1010.98
2018-09-23T13:07:18.716Z,1010.98
2018-09-23T13:09:12.478Z,1011.01
2018-09-23T13:10:11.718Z,1011.01
2018-09-23T13:12:04.727Z,1011.06
2018-09-23T13:13:04.742Z,1011.06
2018-09-23T13:14:58.086Z,1011.10
2018-09-23T13:15:57.743Z,1011.12
2018-09-23T13:17:50.735Z,1011.17
2018-09-23T13:18:50.743Z,1011.23
2018-09-23T13:20:43.867Z,1011.29
2018-09-23T13:21:43.742Z,1011.34
2018-09-23T13:23:37.223Z,1011.35
2018-09-23T13:24:36.758Z,1011.38
2018-09-23T13:26:29.853Z,1011.40
2018-09-23T13:27:29.742Z,1011.45
2018-09-23T13:29:22.728Z,1011.45
2018-09-23T13:30:22.762Z,1011.45
2018-09-23T13:32:15.882Z,1011.60
2018-09-23T13:33:15.792Z,1011.62
2018-09-23T13:35:08.763Z,1011.67
2018-09-23T13:36:08.776Z,1011.68
2018-09-23T13:38:01.904Z,1011.70
2018-09-23T13:39:01.800Z,1011.69
2018-09-23T13:40:54.779Z,1011.74
2018-09-23T13:41:54.770Z,1011.80
2018-09-23T13:43:47.876Z,1011.82
2018-09-23T13:44:47.782Z,1011.82
2018-09-23T13:46:40.902Z,1011.80
2018-09-23T13:47:40.794Z,1011.79
2018-09-23T13:49:33.909Z,1011.78
2018-09-23T13:50:33.795Z,1011.82
2018-09-23T13:52:26.765Z,1011.84
2018-09-23T13:53:26.782Z,1011.85
2018-09-23T13:55:19.815Z,1011.90
2018-09-23T13:56:19.785Z,1011.93
2018-09-23T13:58:12.764Z,1011.93
2018-09-23T13:59:12.771Z,1011.91
2018-09-23T14:01:05.819Z,1011.94
2018-09-23T14:02:05.783Z,1011.95
2018-09-23T14:03:58.776Z,1012.00
2018-09-23T14:04:58.831Z,1012.00
2018-09-23T14:06:52.042Z,1012.07
2018-09-23T14:07:51.788Z,1012.08
2018-09-23T14:09:44.784Z,1012.10
2018-09-23T14:10:44.820Z,1012.11
2018-09-23T14:12:37.903Z,1012.14
2018-09-23T14:13:37.808Z,1012.07
2018-09-23T14:15:30.771Z,1012.13
2018-09-23T14:16:30.801Z,1012.13
2018-09-23T14:18:24.429Z,1012.17
2018-09-23T14:19:23.844Z,1012.14
2018-09-23T14:21:16.786Z,1012.17
2018-09-23T14:22:16.775Z,1012.18
2018-09-23T14:24:09.893Z,1012.17
2018-09-23T14:25:09.808Z,1012.15
2018-09-23T14:27:02.807Z,1012.18
2018-09-23T14:28:02.786Z,1012.19
2018-09-23T14:29:55.902Z,1012.21
2018-09-23T14:30:55.790Z,1012.24
2018-09-23T14:32:48.795Z,1012.29
2018-09-23T14:33:48.803Z,1012.30
2018-09-23T14:35:41.915Z,1012.35
2018-09-23T14:36:41.798Z,1012.36
2018-09-23T14:38:34.787Z,1012.36
2018-09-23T14:39:34.804Z,1012.42
2018-09-23T14:41:27.901Z,1012.41
2018-09-23T14:42:27.839Z,1012.42
2018-09-23T14:44:20.782Z,1012.40
2018-09-23T14:45:20.816Z,1012.40
2018-09-23T14:47:13.898Z,1012.40
2018-09-23T14:48:13.812Z,1012.39
2018-09-23T14:50:06.792Z,1012.37
2018-09-23T14:51:06.784Z,1012.35
2018-09-23T14:52:59.895Z,1012.35
2018-09-23T14:53:59.796Z,1012.38
2018-09-23T14:55:52.775Z,1012.40
2018-09-23T14:56:52.812Z,1012.39
2018-09-23T14:58:46.802Z,1012.42
2018-09-23T14:59:46.787Z,1012.44
2018-09-23T15:01:39.774Z,1012.50
2018-09-23T15:02:39.766Z,1012.51
2018-09-23T15:04:32.891Z,1012.51
2018-09-23T15:05:32.788Z,1012.54
2018-09-23T15:07:25.771Z,1012.56
2018-09-23T15:08:25.780Z,1012.57
2018-09-23T15:10:18.891Z,1012.59
2018-09-23T15:11:18.782Z,1012.63
2018-09-23T15:13:11.750Z,1012.65
2018-09-23T15:14:11.825Z,1012.61
2018-09-23T15:16:05.005Z,1012.62
2018-09-23T15:17:04.765Z,1012.65
2018-09-23T15:18:57.957Z,1012.65
2018-09-23T15:19:57.959Z,1012.68
2018-09-23T15:21:51.336Z,1012.66
2018-09-23T15:22:50.954Z,1012.71
2018-09-23T15:24:43.951Z,1012.71
2018-09-23T15:25:43.964Z,1012.70
2018-09-23T15:27:37.069Z,1012.73
2018-09-23T15:28:36.964Z,1012.72
2018-09-23T15:30:29.926Z,1012.74
2018-09-23T15:31:29.934Z,1012.77
2018-09-23T15:33:22.974Z,1012.77
2018-09-23T15:34:22.957Z,1012.75
2018-09-23T15:36:15.935Z,1012.80
2018-09-23T15:37:15.936Z,1012.77
2018-09-23T15:39:09.064Z,1012.78
2018-09-23T15:40:08.959Z,1012.75
2018-09-23T15:42:01.928Z,1012.73
2018-09-23T15:43:01.983Z,1012.70
2018-09-23T15:44:55.004Z,1012.69
2018-09-23T15:45:54.946Z,1012.65
2018-09-23T15:47:47.928Z,1012.69
2018-09-23T15:48:47.954Z,1012.66
2018-09-23T15:50:41.113Z,1012.72
2018-09-23T15:51:40.952Z,1012.71
2018-09-23T15:53:33.939Z,1012.75
2018-09-23T15:54:33.955Z,1012.77
2018-09-23T15:56:27.293Z,1012.84
2018-09-23T15:57:26.972Z,1012.88
2018-09-23T15:59:19.959Z,1012.90
2018-09-23T16:00:19.960Z,1012.89
2018-09-23T16:02:13.234Z,1012.88
2018-09-23T16:03:12.977Z,1012.85
2018-09-23T16:05:05.954Z,1012.83
2018-09-23T16:06:05.960Z,1012.85
2018-09-23T16:07:59.068Z,1012.83
2018-09-23T16:08:58.968Z,1012.78
2018-09-23T16:10:51.973Z,1012.79
2018-09-23T16:11:51.970Z,1012.77
2018-09-23T16:13:45.251Z,1012.79
2018-09-23T16:14:44.938Z,1012.78
2018-09-23T16:16:37.948Z,1012.83
2018-09-23T16:17:37.944Z,1012.84
2018-09-23T16:19:31.235Z,1012.87
2018-09-23T16:20:30.998Z,1012.82
2018-09-23T16:22:23.975Z,1012.74
2018-09-23T16:23:23.991Z,1012.78
2018-09-23T16:25:17.023Z,1012.74
2018-09-23T16:26:16.989Z,1012.76
2018-09-23T16:28:09.993Z,1012.80
2018-09-23T16:29:09.991Z,1012.78
2018-09-23T16:31:03.122Z,1012.80
2018-09-23T16:32:03.082Z,1012.77
2018-09-23T16:33:55.993Z,1012.79
2018-09-23T16:34:55.996Z,1012.79
2018-09-23T16:36:50.682Z,1012.79
2018-09-23T16:37:49.049Z,1012.76
2018-09-23T16:39:42.679Z,1012.79
2018-09-23T16:40:41.994Z,1012.77
2018-09-23T16:42:35.117Z,1012.74
2018-09-23T16:43:35.009Z,1012.75
2018-09-23T16:45:28.677Z,1012.73
2018-09-23T16:46:28.004Z,1012.72
2018-09-23T16:48:21.279Z,1012.77
2018-09-23T16:49:20.984Z,1012.77
2018-09-23T16:51:14.672Z,1012.78
2018-09-23T16:52:14.001Z,1012.79
2018-09-23T16:54:07.093Z,1012.80
2018-09-23T16:55:06.998Z,1012.78
2018-09-23T16:56:59.979Z,1012.83
2018-09-23T16:57:59.999Z,1012.83
2018-09-23T16:59:53.093Z,1012.84
2018-09-23T17:00:53.038Z,1012.85
2018-09-23T17:02:45.973Z,1012.86
2018-09-23T17:03:45.965Z,1012.86
2018-09-23T17:05:39.101Z,1012.87
2018-09-23T17:06:38.976Z,1012.83
2018-09-23T17:08:31.946Z,1012.80
2018-09-23T17:09:31.975Z,1012.79
2018-09-23T17:11:25.006Z,1012.82
2018-09-23T17:12:24.981Z,1012.80
2018-09-23T17:14:17.946Z,1012.80
2018-09-23T17:15:17.983Z,1012.79
2018-09-23T17:17:11.078Z,1012.81
2018-09-23T17:18:10.981Z,1012.85
2018-09-23T17:20:03.941Z,1012.80
2018-09-23T17:21:03.962Z,1012.79
2018-09-23T17:22:57.235Z,1012.77
2018-09-23T17:23:56.960Z,1012.77
2018-09-23T17:25:49.956Z,1012.74